sensor_id;sensor_type;location;lat;lon;timestamp;P1;durP1;ratioP1;P2;durP2;ratioP2
42834;SDS011;29335;50.526;30.458;2022-08-19T00:01:38;8.80;;;5.13;;
42834;SDS011;29335;50.526;30.458;2022-08-19T00:04:06;13.50;;;5.07;;
42834;SDS011;29335;50.526;30.458;2022-08-19T00:06:34;14.63;;;5.15;;
42834;SDS011;29335;50.526;30.458;2022-08-19T00:09:03;8.27;;;5.47;;
42834;SDS011;29335;50.526;30.458;2022-08-19T00:11:30;15.43;;;6.00;;
42834;SDS011;29335;50.526;30.458;2022-08-19T00:13:56;9.57;;;6.07;;
42834;SDS011;29335;50.526;30.458;2022-08-19T00:16:22;10.85;;;5.80;;
42834;SDS011;29335;50.526;30.458;2022-08-19T00:18:49;9.13;;;5.70;;
42834;SDS011;29335;50.526;30.458;2022-08-19T00:21:15;10.65;;;5.95;;
42834;SDS011;29335;50.526;30.458;2022-08-19T00:23:41;9.05;;;5.32;;
42834;SDS011;29335;50.526;30.458;2022-08-19T00:26:08;10.77;;;5.70;;
42834;SDS011;29335;50.526;30.458;2022-08-19T00:28:35;9.98;;;5.80;;
42834;SDS011;29335;50.526;30.458;2022-08-19T00:31:01;9.07;;;5.93;;
42834;SDS011;29335;50.526;30.458;2022-08-19T00:33:28;12.18;;;6.30;;
42834;SDS011;29335;50.526;30.458;2022-08-19T00:35:57;11.82;;;5.90;;
42834;SDS011;29335;50.526;30.458;2022-08-19T00:38:24;9.55;;;5.95;;
42834;SDS011;29335;50.526;30.458;2022-08-19T00:40:49;9.48;;;5.55;;
42834;SDS011;29335;50.526;30.458;2022-08-19T00:43:18;8.98;;;5.78;;
42834;SDS011;29335;50.526;30.458;2022-08-19T00:45:46;14.48;;;6.45;;
42834;SDS011;29335;50.526;30.458;2022-08-19T00:48:12;10.52;;;5.97;;
42834;SDS011;29335;50.526;30.458;2022-08-19T00:50:39;10.18;;;5.63;;
42834;SDS011;29335;50.526;30.458;2022-08-19T00:53:08;11.85;;;6.18;;
42834;SDS011;29335;50.526;30.458;2022-08-19T00:55:38;9.37;;;6.00;;
42834;SDS011;29335;50.526;30.458;2022-08-19T00:58:06;8.93;;;6.25;;
42834;SDS011;29335;50.526;30.458;2022-08-19T01:00:36;10.57;;;5.85;;
42834;SDS011;29335;50.526;30.458;2022-08-19T01:03:06;8.70;;;6.05;;
42834;SDS011;29335;50.526;30.458;2022-08-19T01:05:33;10.30;;;6.13;;
42834;SDS011;29335;50.526;30.458;2022-08-19T01:08:00;10.52;;;6.10;;
42834;SDS011;29335;50.526;30.458;2022-08-19T01:10:29;12.32;;;6.32;;
42834;SDS011;29335;50.526;30.458;2022-08-19T01:12:57;11.90;;;6.00;;
42834;SDS011;29335;50.526;30.458;2022-08-19T01:15:26;11.10;;;5.78;;
42834;SDS011;29335;50.526;30.458;2022-08-19T01:18:04;10.48;;;6.18;;
42834;SDS011;29335;50.526;30.458;2022-08-19T01:20:33;9.73;;;5.88;;
42834;SDS011;29335;50.526;30.458;2022-08-19T01:22:59;9.20;;;5.90;;
42834;SDS011;29335;50.526;30.458;2022-08-19T01:25:45;11.23;;;6.35;;
42834;SDS011;29335;50.526;30.458;2022-08-19T01:28:17;9.30;;;6.10;;
42834;SDS011;29335;50.526;30.458;2022-08-19T01:30:45;12.32;;;6.43;;
42834;SDS011;29335;50.526;30.458;2022-08-19T01:33:12;12.18;;;6.40;;
42834;SDS011;29335;50.526;30.458;2022-08-19T01:35:39;10.23;;;5.82;;
42834;SDS011;29335;50.526;30.458;2022-08-19T01:38:05;11.50;;;6.28;;
42834;SDS011;29335;50.526;30.458;2022-08-19T01:40:34;11.93;;;7.13;;
42834;SDS011;29335;50.526;30.458;2022-08-19T01:43:03;10.02;;;6.40;;
42834;SDS011;29335;50.526;30.458;2022-08-19T01:45:30;10.27;;;6.15;;
42834;SDS011;29335;50.526;30.458;2022-08-19T01:47:57;8.60;;;6.40;;
42834;SDS011;29335;50.526;30.458;2022-08-19T01:50:24;12.38;;;7.05;;
42834;SDS011;29335;50.526;30.458;2022-08-19T01:52:52;12.95;;;6.30;;
42834;SDS011;29335;50.526;30.458;2022-08-19T01:55:20;13.18;;;6.70;;
42834;SDS011;29335;50.526;30.458;2022-08-19T01:57:48;9.73;;;6.03;;
42834;SDS011;29335;50.526;30.458;2022-08-19T02:00:20;8.55;;;5.55;;
42834;SDS011;29335;50.526;30.458;2022-08-19T02:02:48;10.13;;;6.50;;
42834;SDS011;29335;50.526;30.458;2022-08-19T02:05:14;14.55;;;6.80;;
42834;SDS011;29335;50.526;30.458;2022-08-19T02:07:44;16.38;;;6.60;;
42834;SDS011;29335;50.526;30.458;2022-08-19T02:10:16;11.88;;;7.05;;
42834;SDS011;29335;50.526;30.458;2022-08-19T02:12:43;8.57;;;6.35;;
42834;SDS011;29335;50.526;30.458;2022-08-19T02:15:10;12.75;;;6.70;;
42834;SDS011;29335;50.526;30.458;2022-08-19T02:17:36;12.27;;;6.85;;
42834;SDS011;29335;50.526;30.458;2022-08-19T02:20:01;10.10;;;6.43;;
42834;SDS011;29335;50.526;30.458;2022-08-19T02:22:28;9.05;;;6.57;;
42834;SDS011;29335;50.526;30.458;2022-08-19T02:24:54;12.82;;;6.57;;
42834;SDS011;29335;50.526;30.458;2022-08-19T02:27:20;13.45;;;6.53;;
42834;SDS011;29335;50.526;30.458;2022-08-19T02:29:47;11.43;;;6.10;;
42834;SDS011;29335;50.526;30.458;2022-08-19T02:32:14;8.68;;;6.45;;
42834;SDS011;29335;50.526;30.458;2022-08-19T02:34:41;10.18;;;6.20;;
42834;SDS011;29335;50.526;30.458;2022-08-19T02:37:06;14.20;;;6.45;;
42834;SDS011;29335;50.526;30.458;2022-08-19T02:39:52;11.95;;;6.30;;
42834;SDS011;29335;50.526;30.458;2022-08-19T02:42:18;13.40;;;6.38;;
42834;SDS011;29335;50.526;30.458;2022-08-19T02:44:43;11.07;;;6.55;;
42834;SDS011;29335;50.526;30.458;2022-08-19T02:47:09;8.90;;;6.45;;
42834;SDS011;29335;50.526;30.458;2022-08-19T02:49:35;9.95;;;6.20;;
42834;SDS011;29335;50.526;30.458;2022-08-19T02:52:01;8.98;;;5.70;;
42834;SDS011;29335;50.526;30.458;2022-08-19T02:54:27;8.75;;;6.03;;
42834;SDS011;29335;50.526;30.458;2022-08-19T02:56:53;9.55;;;6.15;;
42834;SDS011;29335;50.526;30.458;2022-08-19T02:59:19;11.52;;;6.82;;
42834;SDS011;29335;50.526;30.458;2022-08-19T03:01:44;10.82;;;6.20;;
42834;SDS011;29335;50.526;30.458;2022-08-19T03:04:12;10.63;;;6.22;;
42834;SDS011;29335;50.526;30.458;2022-08-19T03:06:40;12.68;;;6.38;;
42834;SDS011;29335;50.526;30.458;2022-08-19T03:09:07;11.80;;;5.85;;
42834;SDS011;29335;50.526;30.458;2022-08-19T03:11:34;9.15;;;6.05;;
42834;SDS011;29335;50.526;30.458;2022-08-19T03:14:00;12.02;;;6.20;;
42834;SDS011;29335;50.526;30.458;2022-08-19T03:16:27;9.02;;;5.90;;
42834;SDS011;29335;50.526;30.458;2022-08-19T03:18:55;11.45;;;5.97;;
42834;SDS011;29335;50.526;30.458;2022-08-19T03:21:25;13.13;;;5.78;;
42834;SDS011;29335;50.526;30.458;2022-08-19T03:23:56;8.10;;;5.90;;
42834;SDS011;29335;50.526;30.458;2022-08-19T03:26:23;9.52;;;6.18;;
42834;SDS011;29335;50.526;30.458;2022-08-19T03:28:49;11.25;;;5.63;;
42834;SDS011;29335;50.526;30.458;2022-08-19T03:31:15;10.68;;;5.88;;
42834;SDS011;29335;50.526;30.458;2022-08-19T03:33:42;8.43;;;5.97;;
42834;SDS011;29335;50.526;30.458;2022-08-19T03:36:09;11.95;;;5.75;;
42834;SDS011;29335;50.526;30.458;2022-08-19T03:38:38;10.82;;;5.78;;
42834;SDS011;29335;50.526;30.458;2022-08-19T03:41:10;10.65;;;5.55;;
42834;SDS011;29335;50.526;30.458;2022-08-19T03:43:38;9.68;;;5.95;;
42834;SDS011;29335;50.526;30.458;2022-08-19T03:46:09;10.35;;;5.68;;
42834;SDS011;29335;50.526;30.458;2022-08-19T03:48:38;10.93;;;5.53;;
42834;SDS011;29335;50.526;30.458;2022-08-19T03:51:06;10.77;;;5.57;;
42834;SDS011;29335;50.526;30.458;2022-08-19T03:53:33;10.15;;;4.90;;
42834;SDS011;29335;50.526;30.458;2022-08-19T03:56:00;11.10;;;5.28;;
42834;SDS011;29335;50.526;30.458;2022-08-19T03:58:26;6.18;;;5.30;;
42834;SDS011;29335;50.526;30.458;2022-08-19T04:00:54;13.35;;;5.93;;
42834;SDS011;29335;50.526;30.458;2022-08-19T04:03:21;10.85;;;5.38;;
42834;SDS011;29335;50.526;30.458;2022-08-19T04:05:47;9.90;;;4.25;;
42834;SDS011;29335;50.526;30.458;2022-08-19T04:08:13;8.98;;;5.50;;
42834;SDS011;29335;50.526;30.458;2022-08-19T04:10:40;11.75;;;5.30;;
42834;SDS011;29335;50.526;30.458;2022-08-19T04:13:06;9.95;;;4.95;;
42834;SDS011;29335;50.526;30.458;2022-08-19T04:15:33;5.95;;;4.60;;
42834;SDS011;29335;50.526;30.458;2022-08-19T04:18:06;7.78;;;5.18;;
42834;SDS011;29335;50.526;30.458;2022-08-19T04:20:38;9.32;;;5.13;;
42834;SDS011;29335;50.526;30.458;2022-08-19T04:23:05;6.65;;;5.22;;
42834;SDS011;29335;50.526;30.458;2022-08-19T04:25:34;9.25;;;5.40;;
42834;SDS011;29335;50.526;30.458;2022-08-19T04:28:10;8.80;;;4.75;;
42834;SDS011;29335;50.526;30.458;2022-08-19T04:30:38;9.07;;;4.85;;
42834;SDS011;29335;50.526;30.458;2022-08-19T04:33:05;10.00;;;4.80;;
42834;SDS011;29335;50.526;30.458;2022-08-19T04:35:35;12.02;;;5.30;;
42834;SDS011;29335;50.526;30.458;2022-08-19T04:40:28;10.05;;;4.80;;
42834;SDS011;29335;50.526;30.458;2022-08-19T04:43:12;9.63;;;4.75;;
42834;SDS011;29335;50.526;30.458;2022-08-19T04:45:39;8.38;;;5.40;;
42834;SDS011;29335;50.526;30.458;2022-08-19T04:48:05;7.38;;;5.03;;
42834;SDS011;29335;50.526;30.458;2022-08-19T04:50:31;8.60;;;4.75;;
42834;SDS011;29335;50.526;30.458;2022-08-19T04:52:56;7.68;;;4.85;;
42834;SDS011;29335;50.526;30.458;2022-08-19T04:55:22;7.75;;;5.00;;
42834;SDS011;29335;50.526;30.458;2022-08-19T04:57:50;7.50;;;4.57;;
42834;SDS011;29335;50.526;30.458;2022-08-19T05:00:16;9.05;;;5.35;;
42834;SDS011;29335;50.526;30.458;2022-08-19T05:02:42;9.07;;;4.95;;
42834;SDS011;29335;50.526;30.458;2022-08-19T05:05:07;9.43;;;5.28;;
42834;SDS011;29335;50.526;30.458;2022-08-19T05:07:33;8.25;;;4.85;;
42834;SDS011;29335;50.526;30.458;2022-08-19T05:09:59;11.48;;;5.43;;
42834;SDS011;29335;50.526;30.458;2022-08-19T05:12:25;11.68;;;5.20;;
42834;SDS011;29335;50.526;30.458;2022-08-19T05:14:52;10.27;;;5.45;;
42834;SDS011;29335;50.526;30.458;2022-08-19T05:17:19;11.73;;;4.50;;
42834;SDS011;29335;50.526;30.458;2022-08-19T05:19:44;8.32;;;4.78;;
42834;SDS011;29335;50.526;30.458;2022-08-19T05:22:28;7.65;;;4.88;;
42834;SDS011;29335;50.526;30.458;2022-08-19T05:24:57;8.98;;;4.85;;
42834;SDS011;29335;50.526;30.458;2022-08-19T05:27:23;10.70;;;5.18;;
42834;SDS011;29335;50.526;30.458;2022-08-19T05:29:49;7.53;;;4.72;;
42834;SDS011;29335;50.526;30.458;2022-08-19T05:32:15;8.70;;;4.85;;
42834;SDS011;29335;50.526;30.458;2022-08-19T05:34:40;8.05;;;4.97;;
42834;SDS011;29335;50.526;30.458;2022-08-19T05:37:06;7.53;;;4.80;;
42834;SDS011;29335;50.526;30.458;2022-08-19T05:39:34;13.55;;;5.35;;
42834;SDS011;29335;50.526;30.458;2022-08-19T05:42:03;10.07;;;5.30;;
42834;SDS011;29335;50.526;30.458;2022-08-19T05:44:32;11.15;;;4.72;;
42834;SDS011;29335;50.526;30.458;2022-08-19T05:46:59;13.32;;;5.15;;
42834;SDS011;29335;50.526;30.458;2022-08-19T05:49:27;13.48;;;5.22;;
42834;SDS011;29335;50.526;30.458;2022-08-19T05:51:53;9.02;;;5.00;;
42834;SDS011;29335;50.526;30.458;2022-08-19T05:54:20;9.15;;;4.78;;
42834;SDS011;29335;50.526;30.458;2022-08-19T05:56:49;7.82;;;4.63;;
42834;SDS011;29335;50.526;30.458;2022-08-19T05:59:16;9.60;;;4.75;;
42834;SDS011;29335;50.526;30.458;2022-08-19T06:01:42;13.35;;;5.25;;
42834;SDS011;29335;50.526;30.458;2022-08-19T06:04:10;9.20;;;4.63;;
42834;SDS011;29335;50.526;30.458;2022-08-19T06:06:38;8.18;;;4.60;;
42834;SDS011;29335;50.526;30.458;2022-08-19T06:09:04;8.02;;;4.60;;
42834;SDS011;29335;50.526;30.458;2022-08-19T06:11:40;11.38;;;4.80;;
42834;SDS011;29335;50.526;30.458;2022-08-19T06:14:10;11.52;;;5.40;;
42834;SDS011;29335;50.526;30.458;2022-08-19T06:16:38;11.75;;;5.18;;
42834;SDS011;29335;50.526;30.458;2022-08-19T06:19:06;12.63;;;5.25;;
42834;SDS011;29335;50.526;30.458;2022-08-19T06:21:35;11.75;;;5.32;;
42834;SDS011;29335;50.526;30.458;2022-08-19T06:24:03;9.90;;;5.20;;
42834;SDS011;29335;50.526;30.458;2022-08-19T06:26:29;11.65;;;5.80;;
42834;SDS011;29335;50.526;30.458;2022-08-19T06:28:55;9.20;;;4.78;;
42834;SDS011;29335;50.526;30.458;2022-08-19T06:31:23;8.02;;;4.75;;
42834;SDS011;29335;50.526;30.458;2022-08-19T06:33:51;8.15;;;4.30;;
42834;SDS011;29335;50.526;30.458;2022-08-19T06:36:20;8.15;;;4.57;;
42834;SDS011;29335;50.526;30.458;2022-08-19T06:38:52;15.98;;;5.90;;
42834;SDS011;29335;50.526;30.458;2022-08-19T06:41:18;10.52;;;5.43;;
42834;SDS011;29335;50.526;30.458;2022-08-19T06:43:43;10.27;;;5.20;;
42834;SDS011;29335;50.526;30.458;2022-08-19T06:46:10;8.27;;;4.50;;
42834;SDS011;29335;50.526;30.458;2022-08-19T06:48:38;9.07;;;5.38;;
42834;SDS011;29335;50.526;30.458;2022-08-19T06:51:04;10.05;;;4.60;;
42834;SDS011;29335;50.526;30.458;2022-08-19T06:53:30;11.35;;;5.63;;
42834;SDS011;29335;50.526;30.458;2022-08-19T06:55:57;11.43;;;5.30;;
42834;SDS011;29335;50.526;30.458;2022-08-19T06:58:26;9.38;;;5.53;;
42834;SDS011;29335;50.526;30.458;2022-08-19T07:03:31;7.10;;;4.65;;
42834;SDS011;29335;50.526;30.458;2022-08-19T07:06:17;11.40;;;5.18;;
42834;SDS011;29335;50.526;30.458;2022-08-19T07:08:45;13.00;;;5.50;;
42834;SDS011;29335;50.526;30.458;2022-08-19T07:11:13;10.55;;;5.07;;
42834;SDS011;29335;50.526;30.458;2022-08-19T07:13:42;15.65;;;5.68;;
42834;SDS011;29335;50.526;30.458;2022-08-19T07:16:11;9.68;;;5.28;;
42834;SDS011;29335;50.526;30.458;2022-08-19T07:18:38;11.30;;;6.00;;
42834;SDS011;29335;50.526;30.458;2022-08-19T07:21:05;12.80;;;5.53;;
42834;SDS011;29335;50.526;30.458;2022-08-19T07:23:32;9.52;;;5.35;;
42834;SDS011;29335;50.526;30.458;2022-08-19T07:26:05;11.38;;;5.78;;
42834;SDS011;29335;50.526;30.458;2022-08-19T07:28:35;9.73;;;5.72;;
42834;SDS011;29335;50.526;30.458;2022-08-19T07:31:05;10.10;;;5.53;;
42834;SDS011;29335;50.526;30.458;2022-08-19T07:33:32;9.90;;;5.40;;
42834;SDS011;29335;50.526;30.458;2022-08-19T07:35:59;12.52;;;6.13;;
42834;SDS011;29335;50.526;30.458;2022-08-19T07:38:24;7.78;;;4.85;;
42834;SDS011;29335;50.526;30.458;2022-08-19T07:40:50;11.07;;;5.38;;
42834;SDS011;29335;50.526;30.458;2022-08-19T07:43:16;12.05;;;5.68;;
42834;SDS011;29335;50.526;30.458;2022-08-19T07:45:45;12.70;;;5.88;;
42834;SDS011;29335;50.526;30.458;2022-08-19T07:48:12;9.65;;;5.45;;
42834;SDS011;29335;50.526;30.458;2022-08-19T07:50:37;10.68;;;5.40;;
42834;SDS011;29335;50.526;30.458;2022-08-19T07:53:03;10.95;;;5.72;;
42834;SDS011;29335;50.526;30.458;2022-08-19T07:55:29;11.40;;;5.43;;
42834;SDS011;29335;50.526;30.458;2022-08-19T07:57:55;10.45;;;5.45;;
42834;SDS011;29335;50.526;30.458;2022-08-19T08:00:21;11.00;;;5.90;;
42834;SDS011;29335;50.526;30.458;2022-08-19T08:02:47;8.10;;;5.30;;
42834;SDS011;29335;50.526;30.458;2022-08-19T08:05:12;8.80;;;5.68;;
42834;SDS011;29335;50.526;30.458;2022-08-19T08:07:56;9.73;;;5.60;;
42834;SDS011;29335;50.526;30.458;2022-08-19T08:10:40;10.85;;;5.43;;
42834;SDS011;29335;50.526;30.458;2022-08-19T08:13:06;12.32;;;5.50;;
42834;SDS011;29335;50.526;30.458;2022-08-19T08:15:32;7.72;;;4.97;;
42834;SDS011;29335;50.526;30.458;2022-08-19T08:17:58;10.88;;;5.60;;
42834;SDS011;29335;50.526;30.458;2022-08-19T08:20:24;12.30;;;5.28;;
42834;SDS011;29335;50.526;30.458;2022-08-19T08:22:49;11.32;;;5.85;;
42834;SDS011;29335;50.526;30.458;2022-08-19T08:25:33;12.18;;;5.20;;
42834;SDS011;29335;50.526;30.458;2022-08-19T08:28:00;9.38;;;5.22;;
42834;SDS011;29335;50.526;30.458;2022-08-19T08:30:27;10.18;;;6.28;;
42834;SDS011;29335;50.526;30.458;2022-08-19T08:32:54;12.68;;;5.40;;
42834;SDS011;29335;50.526;30.458;2022-08-19T08:35:21;13.48;;;5.50;;
42834;SDS011;29335;50.526;30.458;2022-08-19T08:37:48;13.55;;;5.90;;
42834;SDS011;29335;50.526;30.458;2022-08-19T08:43:20;12.80;;;5.47;;
42834;SDS011;29335;50.526;30.458;2022-08-19T08:51:23;13.10;;;5.80;;
42834;SDS011;29335;50.526;30.458;2022-08-19T08:53:58;11.93;;;5.57;;
42834;SDS011;29335;50.526;30.458;2022-08-19T08:56:26;11.00;;;5.47;;
42834;SDS011;29335;50.526;30.458;2022-08-19T08:58:55;10.13;;;5.60;;
42834;SDS011;29335;50.526;30.458;2022-08-19T09:01:22;11.05;;;5.25;;
42834;SDS011;29335;50.526;30.458;2022-08-19T09:03:48;10.05;;;4.90;;
42834;SDS011;29335;50.526;30.458;2022-08-19T09:06:18;10.07;;;6.03;;
42834;SDS011;29335;50.526;30.458;2022-08-19T09:09:04;10.52;;;5.38;;
42834;SDS011;29335;50.526;30.458;2022-08-19T09:14:18;12.93;;;5.40;;
42834;SDS011;29335;50.526;30.458;2022-08-19T09:16:56;14.82;;;5.65;;
42834;SDS011;29335;50.526;30.458;2022-08-19T09:19:22;10.60;;;5.40;;
42834;SDS011;29335;50.526;30.458;2022-08-19T09:21:48;9.20;;;5.32;;
42834;SDS011;29335;50.526;30.458;2022-08-19T09:24:15;9.65;;;5.72;;
42834;SDS011;29335;50.526;30.458;2022-08-19T09:26:41;11.85;;;5.50;;
42834;SDS011;29335;50.526;30.458;2022-08-19T09:29:08;8.82;;;5.35;;
42834;SDS011;29335;50.526;30.458;2022-08-19T09:31:35;6.85;;;5.18;;
42834;SDS011;29335;50.526;30.458;2022-08-19T09:34:01;13.85;;;5.85;;
42834;SDS011;29335;50.526;30.458;2022-08-19T09:36:29;8.60;;;4.65;;
42834;SDS011;29335;50.526;30.458;2022-08-19T09:38:57;9.77;;;5.32;;
42834;SDS011;29335;50.526;30.458;2022-08-19T09:41:25;11.75;;;6.22;;
42834;SDS011;29335;50.526;30.458;2022-08-19T09:43:52;9.75;;;5.13;;
42834;SDS011;29335;50.526;30.458;2022-08-19T09:46:20;9.55;;;5.38;;
42834;SDS011;29335;50.526;30.458;2022-08-19T09:48:47;7.65;;;4.90;;
42834;SDS011;29335;50.526;30.458;2022-08-19T09:51:18;16.25;;;5.90;;
42834;SDS011;29335;50.526;30.458;2022-08-19T09:53:46;8.35;;;5.15;;
42834;SDS011;29335;50.526;30.458;2022-08-19T09:56:15;11.05;;;5.30;;
42834;SDS011;29335;50.526;30.458;2022-08-19T09:58:42;13.05;;;5.90;;
42834;SDS011;29335;50.526;30.458;2022-08-19T10:01:08;11.00;;;5.82;;
42834;SDS011;29335;50.526;30.458;2022-08-19T10:03:41;9.93;;;5.22;;
42834;SDS011;29335;50.526;30.458;2022-08-19T10:06:06;10.38;;;5.22;;
42834;SDS011;29335;50.526;30.458;2022-08-19T10:08:35;8.75;;;4.43;;
42834;SDS011;29335;50.526;30.458;2022-08-19T10:11:02;8.95;;;5.05;;
42834;SDS011;29335;50.526;30.458;2022-08-19T10:13:29;6.95;;;4.65;;
42834;SDS011;29335;50.526;30.458;2022-08-19T10:16:01;11.68;;;5.35;;
42834;SDS011;29335;50.526;30.458;2022-08-19T10:18:32;13.90;;;5.57;;
42834;SDS011;29335;50.526;30.458;2022-08-19T10:21:07;11.75;;;4.88;;
42834;SDS011;29335;50.526;30.458;2022-08-19T10:23:37;9.15;;;4.72;;
42834;SDS011;29335;50.526;30.458;2022-08-19T10:26:04;11.90;;;5.13;;
42834;SDS011;29335;50.526;30.458;2022-08-19T10:28:35;11.43;;;4.20;;
42834;SDS011;29335;50.526;30.458;2022-08-19T10:31:12;9.85;;;5.10;;
42834;SDS011;29335;50.526;30.458;2022-08-19T10:33:40;8.63;;;4.75;;
42834;SDS011;29335;50.526;30.458;2022-08-19T10:36:08;10.65;;;4.35;;
42834;SDS011;29335;50.526;30.458;2022-08-19T10:38:42;11.73;;;4.70;;
42834;SDS011;29335;50.526;30.458;2022-08-19T10:41:14;10.60;;;4.82;;
42834;SDS011;29335;50.526;30.458;2022-08-19T10:43:42;9.73;;;4.50;;
42834;SDS011;29335;50.526;30.458;2022-08-19T10:46:11;10.35;;;4.80;;
42834;SDS011;29335;50.526;30.458;2022-08-19T10:48:40;9.13;;;4.63;;
42834;SDS011;29335;50.526;30.458;2022-08-19T10:51:07;14.43;;;4.40;;
42834;SDS011;29335;50.526;30.458;2022-08-19T10:53:52;8.38;;;4.85;;
42834;SDS011;29335;50.526;30.458;2022-08-19T10:56:18;10.48;;;5.15;;
42834;SDS011;29335;50.526;30.458;2022-08-19T10:59:02;7.95;;;4.18;;
42834;SDS011;29335;50.526;30.458;2022-08-19T11:01:30;11.50;;;4.55;;
42834;SDS011;29335;50.526;30.458;2022-08-19T11:03:58;11.93;;;4.45;;
42834;SDS011;29335;50.526;30.458;2022-08-19T11:06:25;11.23;;;4.45;;
42834;SDS011;29335;50.526;30.458;2022-08-19T11:08:51;8.05;;;4.18;;
42834;SDS011;29335;50.526;30.458;2022-08-19T11:11:17;9.80;;;4.18;;
42834;SDS011;29335;50.526;30.458;2022-08-19T11:13:43;9.32;;;4.18;;
42834;SDS011;29335;50.526;30.458;2022-08-19T11:18:37;9.48;;;4.00;;
42834;SDS011;29335;50.526;30.458;2022-08-19T11:21:20;8.20;;;4.15;;
42834;SDS011;29335;50.526;30.458;2022-08-19T11:23:57;9.40;;;4.45;;
42834;SDS011;29335;50.526;30.458;2022-08-19T11:26:25;9.85;;;4.32;;
42834;SDS011;29335;50.526;30.458;2022-08-19T11:28:55;10.60;;;4.18;;
42834;SDS011;29335;50.526;30.458;2022-08-19T11:31:27;8.50;;;4.20;;
42834;SDS011;29335;50.526;30.458;2022-08-19T11:33:58;9.38;;;4.35;;
42834;SDS011;29335;50.526;30.458;2022-08-19T11:36:26;14.02;;;5.05;;
42834;SDS011;29335;50.526;30.458;2022-08-19T11:38:52;8.50;;;4.38;;
42834;SDS011;29335;50.526;30.458;2022-08-19T11:41:19;7.30;;;4.32;;
42834;SDS011;29335;50.526;30.458;2022-08-19T11:43:47;11.95;;;4.50;;
42834;SDS011;29335;50.526;30.458;2022-08-19T11:46:14;8.13;;;4.40;;
42834;SDS011;29335;50.526;30.458;2022-08-19T11:48:41;8.70;;;4.05;;
42834;SDS011;29335;50.526;30.458;2022-08-19T11:51:08;9.88;;;4.70;;
42834;SDS011;29335;50.526;30.458;2022-08-19T11:53:39;7.30;;;4.10;;
42834;SDS011;29335;50.526;30.458;2022-08-19T11:56:06;9.00;;;4.03;;
42834;SDS011;29335;50.526;30.458;2022-08-19T11:58:34;7.88;;;4.18;;
42834;SDS011;29335;50.526;30.458;2022-08-19T12:01:00;7.40;;;3.58;;
42834;SDS011;29335;50.526;30.458;2022-08-19T12:03:26;10.35;;;3.83;;
42834;SDS011;29335;50.526;30.458;2022-08-19T12:05:53;9.10;;;4.45;;
42834;SDS011;29335;50.526;30.458;2022-08-19T12:08:19;10.20;;;4.22;;
42834;SDS011;29335;50.526;30.458;2022-08-19T12:10:44;8.07;;;4.03;;
42834;SDS011;29335;50.526;30.458;2022-08-19T12:13:10;7.40;;;4.43;;
42834;SDS011;29335;50.526;30.458;2022-08-19T12:15:39;6.50;;;3.80;;
42834;SDS011;29335;50.526;30.458;2022-08-19T12:18:08;7.45;;;4.20;;
42834;SDS011;29335;50.526;30.458;2022-08-19T12:20:35;7.65;;;4.10;;
42834;SDS011;29335;50.526;30.458;2022-08-19T12:23:02;8.85;;;4.22;;
42834;SDS011;29335;50.526;30.458;2022-08-19T12:25:28;11.30;;;4.55;;
42834;SDS011;29335;50.526;30.458;2022-08-19T12:27:54;9.95;;;4.32;;
42834;SDS011;29335;50.526;30.458;2022-08-19T12:30:20;8.55;;;3.88;;
42834;SDS011;29335;50.526;30.458;2022-08-19T12:32:45;9.68;;;4.50;;
42834;SDS011;29335;50.526;30.458;2022-08-19T12:35:11;7.82;;;4.32;;
42834;SDS011;29335;50.526;30.458;2022-08-19T12:37:37;11.40;;;4.15;;
42834;SDS011;29335;50.526;30.458;2022-08-19T12:40:03;10.30;;;4.97;;
42834;SDS011;29335;50.526;30.458;2022-08-19T12:42:30;10.27;;;4.55;;
42834;SDS011;29335;50.526;30.458;2022-08-19T12:44:55;11.20;;;4.07;;
42834;SDS011;29335;50.526;30.458;2022-08-19T12:47:21;10.70;;;3.97;;
42834;SDS011;29335;50.526;30.458;2022-08-19T12:49:47;9.93;;;4.47;;
42834;SDS011;29335;50.526;30.458;2022-08-19T12:52:13;8.60;;;3.95;;
42834;SDS011;29335;50.526;30.458;2022-08-19T12:54:41;9.80;;;4.95;;
42834;SDS011;29335;50.526;30.458;2022-08-19T12:57:08;7.68;;;4.40;;
42834;SDS011;29335;50.526;30.458;2022-08-19T12:59:35;8.55;;;4.70;;
42834;SDS011;29335;50.526;30.458;2022-08-19T13:02:01;12.60;;;4.70;;
42834;SDS011;29335;50.526;30.458;2022-08-19T13:04:32;9.20;;;4.47;;
42834;SDS011;29335;50.526;30.458;2022-08-19T13:07:00;10.73;;;4.22;;
42834;SDS011;29335;50.526;30.458;2022-08-19T13:09:26;9.32;;;4.85;;
42834;SDS011;29335;50.526;30.458;2022-08-19T13:11:51;7.15;;;4.55;;
42834;SDS011;29335;50.526;30.458;2022-08-19T13:14:17;7.43;;;4.18;;
42834;SDS011;29335;50.526;30.458;2022-08-19T13:16:43;10.05;;;4.75;;
42834;SDS011;29335;50.526;30.458;2022-08-19T13:19:09;7.60;;;4.18;;
42834;SDS011;29335;50.526;30.458;2022-08-19T13:21:36;8.82;;;4.63;;
42834;SDS011;29335;50.526;30.458;2022-08-19T13:24:02;8.63;;;4.65;;
42834;SDS011;29335;50.526;30.458;2022-08-19T13:26:28;16.15;;;4.55;;
42834;SDS011;29335;50.526;30.458;2022-08-19T13:28:54;7.95;;;3.85;;
42834;SDS011;29335;50.526;30.458;2022-08-19T13:31:39;6.68;;;4.03;;
42834;SDS011;29335;50.526;30.458;2022-08-19T13:34:30;9.70;;;4.22;;
42834;SDS011;29335;50.526;30.458;2022-08-19T13:36:58;8.40;;;4.70;;
42834;SDS011;29335;50.526;30.458;2022-08-19T13:39:24;8.38;;;4.30;;
42834;SDS011;29335;50.526;30.458;2022-08-19T13:41:49;8.00;;;5.20;;
42834;SDS011;29335;50.526;30.458;2022-08-19T13:44:16;9.18;;;5.70;;
42834;SDS011;29335;50.526;30.458;2022-08-19T13:46:43;8.80;;;4.57;;
42834;SDS011;29335;50.526;30.458;2022-08-19T13:49:09;7.65;;;4.40;;
42834;SDS011;29335;50.526;30.458;2022-08-19T13:51:37;11.10;;;4.72;;
42834;SDS011;29335;50.526;30.458;2022-08-19T13:54:04;7.70;;;4.43;;
42834;SDS011;29335;50.526;30.458;2022-08-19T13:56:31;8.43;;;4.57;;
42834;SDS011;29335;50.526;30.458;2022-08-19T13:58:56;8.60;;;4.68;;
42834;SDS011;29335;50.526;30.458;2022-08-19T14:01:22;6.43;;;4.38;;
42834;SDS011;29335;50.526;30.458;2022-08-19T14:03:48;12.98;;;5.40;;
42834;SDS011;29335;50.526;30.458;2022-08-19T14:06:14;10.95;;;4.90;;
42834;SDS011;29335;50.526;30.458;2022-08-19T14:08:41;10.35;;;5.07;;
42834;SDS011;29335;50.526;30.458;2022-08-19T14:11:07;9.10;;;4.68;;
42834;SDS011;29335;50.526;30.458;2022-08-19T14:13:33;10.88;;;5.18;;
42834;SDS011;29335;50.526;30.458;2022-08-19T14:15:59;12.35;;;4.80;;
42834;SDS011;29335;50.526;30.458;2022-08-19T14:18:25;9.48;;;5.20;;
42834;SDS011;29335;50.526;30.458;2022-08-19T14:20:51;7.60;;;4.90;;
42834;SDS011;29335;50.526;30.458;2022-08-19T14:23:17;12.80;;;4.47;;
42834;SDS011;29335;50.526;30.458;2022-08-19T14:25:42;7.55;;;4.40;;
42834;SDS011;29335;50.526;30.458;2022-08-19T14:28:09;9.48;;;4.50;;
42834;SDS011;29335;50.526;30.458;2022-08-19T14:30:36;7.47;;;4.63;;
42834;SDS011;29335;50.526;30.458;2022-08-19T14:33:03;8.55;;;4.18;;
42834;SDS011;29335;50.526;30.458;2022-08-19T14:35:30;9.07;;;4.38;;
42834;SDS011;29335;50.526;30.458;2022-08-19T14:37:59;5.63;;;4.20;;
42834;SDS011;29335;50.526;30.458;2022-08-19T14:40:26;7.38;;;4.18;;
42834;SDS011;29335;50.526;30.458;2022-08-19T14:42:58;6.45;;;4.50;;
42834;SDS011;29335;50.526;30.458;2022-08-19T14:45:29;6.78;;;4.78;;
42834;SDS011;29335;50.526;30.458;2022-08-19T14:47:56;7.57;;;4.53;;
42834;SDS011;29335;50.526;30.458;2022-08-19T14:50:24;12.80;;;5.25;;
42834;SDS011;29335;50.526;30.458;2022-08-19T14:52:57;9.05;;;4.40;;